Lynchburg, Texas
Current Conditions -  °F | °C
As of 3:50 PM on Friday 28 Nov 2014 (Local Time) from KEFD Reporting Station
Broken Clouds Broken Clouds  
Wind Chill: 70°   Ceiling: 3500
Heat Index: 70°   Visibility: 10mi
Dew Point: 54°   Wind: 12mph
Humidity: 56%   Direction: 160°SSE
Pressure: 30.22"   Gusts: NA
Location:  29.7803°N, 94.894°W
Report Text: KEFD 282150Z 16010KT 10SM BKN035 BKN120 21/12 A3022
Loading
Personal Weather Stations






























Interactive Weather Map New forecast layout! Learn more

10-Day Weather Forecast

Advertisements
Track Severe Weather on mobile